Byers, Texas
Current Conditions -  °F | °C
As of 1:52 AM on Friday 28 Nov 2014 (Local Time) from KSPS Reporting Station
Clear Clear  
Wind Chill:   Ceiling: Unl
Heat Index:   Visibility: 10mi
Dew Point: -2°   Wind: 9mph
Humidity: 60%   Direction: 180°S
Pressure: 30.24"   Gusts: NA
Location:  34.07°N, 98.19°W
Report Text: KSPS 280752Z AUTO 18008KT 10SM CLR 06/M02 A3024 RMK AO2 SLP238 T00561017 TSNO
Loading
Personal Weather Stations






























Interactive Weather Map New forecast layout! Learn more

10-Day Weather Forecast

Advertisements
Track Severe Weather on mobile